createdAt,value
2019-02-24T00:00:58.297Z,4.27
2019-02-24T00:03:25.543Z,3.20
2019-02-24T00:05:52.777Z,3.63
2019-02-24T00:08:20.046Z,4.47
2019-02-24T00:10:47.186Z,4.17
2019-02-24T00:13:14.410Z,3.77
2019-02-24T00:15:41.655Z,5.47
2019-02-24T00:18:09.018Z,5.47
2019-02-24T00:20:36.275Z,5.10
2019-02-24T00:23:03.520Z,3.30
2019-02-24T00:25:30.775Z,2.67
2019-02-24T00:28:01.354Z,2.93
2019-02-24T00:30:27.056Z,2.73
2019-02-24T00:32:54.336Z,4.77
2019-02-24T00:35:21.494Z,3.37
2019-02-24T00:37:48.822Z,2.67
2019-02-24T00:40:16.146Z,2.57
2019-02-24T00:42:43.408Z,2.67
2019-02-24T00:45:10.655Z,3.17
2019-02-24T00:47:37.955Z,3.47
2019-02-24T00:50:06.192Z,3.20
2019-02-24T00:52:33.349Z,2.70
2019-02-24T00:55:00.471Z,2.67
2019-02-24T00:57:27.731Z,2.60
2019-02-24T00:59:54.864Z,2.53
2019-02-24T01:02:22.126Z,3.50
2019-02-24T01:04:49.393Z,1.83
2019-02-24T01:07:16.617Z,2.80
2019-02-24T01:09:43.742Z,2.17
2019-02-24T01:12:11.040Z,2.10
2019-02-24T01:14:38.254Z,2.80
2019-02-24T01:17:05.702Z,2.37
2019-02-24T01:19:32.858Z,2.20
2019-02-24T01:22:00.085Z,2.57
2019-02-24T01:24:27.326Z,4.20
2019-02-24T01:26:54.561Z,3.73
2019-02-24T01:29:21.824Z,2.27
2019-02-24T01:31:49.071Z,2.80
2019-02-24T01:34:16.224Z,3.90
2019-02-24T01:36:43.466Z,2.03
2019-02-24T01:39:10.591Z,2.63
2019-02-24T01:41:37.862Z,2.53
2019-02-24T01:44:04.998Z,1.97
2019-02-24T01:46:32.142Z,3.17
2019-02-24T01:48:59.278Z,2.47
2019-02-24T01:51:26.534Z,2.47
2019-02-24T01:53:53.746Z,1.87
2019-02-24T01:56:21.015Z,2.50
2019-02-24T01:58:48.285Z,2.03
2019-02-24T02:01:15.535Z,2.87
2019-02-24T02:03:42.675Z,2.43
2019-02-24T02:06:09.951Z,2.23
2019-02-24T02:08:37.075Z,5.83
2019-02-24T02:11:04.203Z,2.93
2019-02-24T02:13:31.487Z,2.83
2019-02-24T02:15:58.721Z,2.50
2019-02-24T02:18:25.958Z,2.20
2019-02-24T02:20:53.303Z,3.43
2019-02-24T02:23:20.463Z,1.97
2019-02-24T02:25:47.586Z,1.90
2019-02-24T02:28:14.823Z,2.77
2019-02-24T02:30:42.055Z,3.50
2019-02-24T02:33:09.300Z,2.37
2019-02-24T02:35:36.473Z,4.73
2019-02-24T02:38:03.622Z,2.80
2019-02-24T02:40:30.850Z,2.97
2019-02-24T02:42:58.127Z,3.47
2019-02-24T02:45:25.349Z,3.50
2019-02-24T02:47:52.693Z,2.30
2019-02-24T02:50:19.819Z,3.07
2019-02-24T02:52:47.054Z,3.43
2019-02-24T02:55:14.392Z,2.17
2019-02-24T02:57:41.666Z,3.03
2019-02-24T03:00:26.337Z,3.63
2019-02-24T03:02:53.695Z,3.83
2019-02-24T03:05:20.919Z,3.97
2019-02-24T03:07:54.349Z,3.43
2019-02-24T03:10:21.601Z,3.13
2019-02-24T03:12:48.875Z,2.33
2019-02-24T03:15:16.103Z,5.37
2019-02-24T03:17:43.359Z,3.10
2019-02-24T03:20:10.594Z,4.43
2019-02-24T03:22:37.846Z,2.67
2019-02-24T03:25:05.081Z,4.87
2019-02-24T03:27:32.356Z,2.40
2019-02-24T03:29:59.687Z,3.63
2019-02-24T03:32:26.942Z,3.70
2019-02-24T03:34:54.178Z,3.50
2019-02-24T03:37:21.391Z,2.37
2019-02-24T03:39:48.658Z,2.70
2019-02-24T03:42:15.827Z,2.87
2019-02-24T03:44:43.153Z,1.97
2019-02-24T03:47:10.408Z,2.13
2019-02-24T03:49:37.568Z,3.20
2019-02-24T03:52:04.690Z,2.57
2019-02-24T03:54:31.992Z,2.53
2019-02-24T03:56:59.384Z,3.57
2019-02-24T03:59:26.651Z,3.67
2019-02-24T04:01:53.825Z,2.23
2019-02-24T04:04:21.067Z,2.73
2019-02-24T04:06:48.314Z,2.20
2019-02-24T04:09:15.553Z,3.33
2019-02-24T04:11:42.748Z,3.37
2019-02-24T04:14:10.007Z,2.63
2019-02-24T04:16:37.240Z,3.73
2019-02-24T04:19:04.546Z,2.37
2019-02-24T04:21:31.844Z,2.73
2019-02-24T04:23:58.980Z,4.47
2019-02-24T04:26:26.145Z,2.63
2019-02-24T04:28:53.365Z,2.67
2019-02-24T04:31:20.656Z,2.37
2019-02-24T04:33:48.027Z,3.87
2019-02-24T04:36:15.261Z,2.77
2019-02-24T04:38:42.433Z,2.57
2019-02-24T04:41:09.655Z,1.77
2019-02-24T04:43:36.892Z,3.60
2019-02-24T04:46:04.170Z,3.17
2019-02-24T04:48:31.396Z,2.77
2019-02-24T04:50:58.611Z,2.60
2019-02-24T04:53:25.774Z,3.00
2019-02-24T04:55:52.903Z,3.23
2019-02-24T04:58:20.054Z,3.47
2019-02-24T05:00:47.202Z,4.00
2019-02-24T05:03:14.455Z,2.90
2019-02-24T05:05:41.709Z,3.47
2019-02-24T05:08:08.949Z,3.57
2019-02-24T05:10:36.086Z,3.30
2019-02-24T05:13:03.324Z,3.57
2019-02-24T05:15:30.535Z,3.20
2019-02-24T05:17:57.664Z,2.33
2019-02-24T05:20:24.943Z,2.33
2019-02-24T05:22:52.059Z,2.93
2019-02-24T05:25:19.306Z,2.50
2019-02-24T05:27:46.577Z,3.00
2019-02-24T05:30:13.888Z,3.53
2019-02-24T05:32:41.139Z,2.60
2019-02-24T05:35:08.596Z,5.47
2019-02-24T05:37:35.820Z,2.40
2019-02-24T05:40:03.112Z,2.93
2019-02-24T05:42:30.416Z,4.40
2019-02-24T05:44:57.643Z,3.60
2019-02-24T05:47:24.936Z,2.33
2019-02-24T05:49:52.129Z,3.40
2019-02-24T05:52:19.387Z,2.67
2019-02-24T05:54:46.622Z,3.57
2019-02-24T05:57:13.864Z,2.20
2019-02-24T05:59:41.087Z,4.27
2019-02-24T06:02:08.334Z,2.70
2019-02-24T06:04:35.675Z,2.57
2019-02-24T06:07:02.906Z,2.40
2019-02-24T06:09:30.057Z,2.67
2019-02-24T06:11:57.268Z,3.40
2019-02-24T06:14:24.499Z,3.13
2019-02-24T06:16:51.755Z,4.43
2019-02-24T06:19:19.103Z,2.57
2019-02-24T06:21:46.237Z,2.60
2019-02-24T06:24:13.491Z,6.10
2019-02-24T06:26:40.744Z,3.93
2019-02-24T06:29:08.009Z,4.20
2019-02-24T06:31:35.244Z,3.37
2019-02-24T06:34:02.541Z,2.50
2019-02-24T06:36:35.792Z,2.90
2019-02-24T06:39:04.086Z,5.30
2019-02-24T06:41:31.430Z,4.57
2019-02-24T06:43:58.713Z,2.97
2019-02-24T06:46:25.923Z,3.40
2019-02-24T06:48:53.087Z,3.27
2019-02-24T06:51:20.227Z,4.40
2019-02-24T06:53:47.485Z,3.30
2019-02-24T06:56:14.738Z,2.77
2019-02-24T06:58:41.919Z,3.10
2019-02-24T07:01:09.180Z,3.53
2019-02-24T07:03:36.411Z,5.10
2019-02-24T07:06:03.570Z,4.30
2019-02-24T07:08:30.798Z,5.83
2019-02-24T07:10:57.921Z,6.50
2019-02-24T07:13:25.161Z,4.97
2019-02-24T07:15:52.429Z,3.67
2019-02-24T07:18:19.547Z,4.50
2019-02-24T07:20:46.702Z,5.60
2019-02-24T07:23:13.965Z,3.20
2019-02-24T07:25:41.203Z,3.23
2019-02-24T07:28:08.460Z,4.40
2019-02-24T07:30:35.633Z,3.40
2019-02-24T07:33:02.742Z,4.23
2019-02-24T07:35:30.004Z,2.83
2019-02-24T07:37:57.114Z,4.33
2019-02-24T07:40:24.288Z,4.97
2019-02-24T07:42:51.436Z,3.10
2019-02-24T07:45:18.573Z,2.83
2019-02-24T07:47:45.794Z,4.60
2019-02-24T07:50:13.112Z,2.77
2019-02-24T07:52:40.342Z,2.20
2019-02-24T07:55:07.614Z,3.27
2019-02-24T07:57:34.832Z,2.67
2019-02-24T08:00:02.088Z,3.30
2019-02-24T08:02:29.442Z,3.30
2019-02-24T08:04:56.561Z,2.33
2019-02-24T08:07:23.740Z,3.73
2019-02-24T08:09:50.966Z,3.47
2019-02-24T08:12:18.221Z,3.47
2019-02-24T08:14:45.475Z,3.00
2019-02-24T08:17:12.625Z,2.90
2019-02-24T08:19:39.877Z,4.83
2019-02-24T08:22:07.003Z,2.73
2019-02-24T08:24:34.253Z,2.70
2019-02-24T08:27:01.577Z,3.37
2019-02-24T08:29:29.553Z,2.70
2019-02-24T08:31:56.827Z,3.50
2019-02-24T08:34:23.987Z,3.23
2019-02-24T08:36:51.261Z,2.83
2019-02-24T08:39:18.517Z,3.83
2019-02-24T08:41:45.662Z,4.17
2019-02-24T08:44:12.853Z,3.70
2019-02-24T08:46:40.140Z,2.67
2019-02-24T08:49:07.419Z,4.00
2019-02-24T08:51:34.771Z,3.02
2019-02-24T08:54:02.038Z,4.03
2019-02-24T08:56:29.278Z,4.87
2019-02-24T08:58:56.479Z,3.12
2019-02-24T09:01:23.738Z,3.42
2019-02-24T09:03:51.035Z,11.28
2019-02-24T09:06:18.370Z,4.58
2019-02-24T09:08:45.623Z,3.12
2019-02-24T09:11:12.850Z,4.33
2019-02-24T09:13:40.107Z,3.62
2019-02-24T09:16:07.365Z,2.40
2019-02-24T09:18:35.105Z,3.95
2019-02-24T09:21:02.364Z,3.72
2019-02-24T09:23:29.522Z,3.42
2019-02-24T09:25:56.765Z,3.17
2019-02-24T09:28:24.041Z,3.47
2019-02-24T09:31:00.169Z,2.90
2019-02-24T09:33:20.554Z,3.55
2019-02-24T09:35:47.861Z,4.40
2019-02-24T09:38:15.125Z,3.37
2019-02-24T09:40:42.381Z,3.58
2019-02-24T09:43:09.629Z,4.47
2019-02-24T09:45:36.856Z,5.03
2019-02-24T09:48:04.108Z,3.70
2019-02-24T09:50:31.353Z,5.50
2019-02-24T09:52:58.682Z,4.17
2019-02-24T09:55:26.015Z,2.90
2019-02-24T09:57:53.191Z,4.65
2019-02-24T10:00:21.982Z,3.20
2019-02-24T10:02:49.293Z,4.27
2019-02-24T10:05:16.511Z,2.90
2019-02-24T10:07:43.779Z,3.77
2019-02-24T10:10:11.082Z,3.27
2019-02-24T10:12:38.380Z,3.10
2019-02-24T10:15:05.762Z,3.25
2019-02-24T10:17:33.035Z,6.05
2019-02-24T10:20:00.343Z,3.75
2019-02-24T10:22:27.616Z,3.87
2019-02-24T10:24:54.852Z,3.62
2019-02-24T10:27:22.009Z,5.37
2019-02-24T10:29:49.271Z,4.05
2019-02-24T10:32:16.401Z,3.87
2019-02-24T10:34:43.653Z,4.05
2019-02-24T10:37:10.798Z,3.60
2019-02-24T10:39:38.032Z,3.27
2019-02-24T10:42:05.289Z,4.00
2019-02-24T10:44:32.453Z,3.62
2019-02-24T10:46:59.789Z,3.15
2019-02-24T10:49:27.051Z,3.67
2019-02-24T10:51:54.297Z,3.47
2019-02-24T10:54:21.585Z,4.15
2019-02-24T10:56:48.819Z,2.95
2019-02-24T10:59:16.935Z,3.05
2019-02-24T11:01:44.306Z,4.50
2019-02-24T11:04:11.565Z,3.27
2019-02-24T11:06:38.837Z,4.05
2019-02-24T11:09:06.118Z,3.12
2019-02-24T11:11:33.378Z,3.52
2019-02-24T11:14:00.665Z,3.37
2019-02-24T11:16:27.906Z,3.35
2019-02-24T11:18:55.176Z,3.20
2019-02-24T11:21:22.463Z,5.22
2019-02-24T11:23:49.719Z,4.47
2019-02-24T11:26:16.874Z,3.50
2019-02-24T11:28:44.041Z,3.62
2019-02-24T11:31:11.339Z,2.87
2019-02-24T11:33:38.676Z,3.10
2019-02-24T11:36:05.936Z,3.22
2019-02-24T11:38:33.278Z,3.95
2019-02-24T11:41:00.561Z,2.90
2019-02-24T11:43:27.709Z,4.60
2019-02-24T11:45:54.853Z,2.62
2019-02-24T11:48:22.133Z,3.22
2019-02-24T11:50:49.394Z,3.08
2019-02-24T11:53:16.658Z,3.95
2019-02-24T11:55:43.895Z,3.27
2019-02-24T11:58:11.106Z,2.80
2019-02-24T12:00:38.357Z,3.02
2019-02-24T12:03:05.515Z,2.85
2019-02-24T12:05:32.788Z,2.60
2019-02-24T12:08:00.053Z,2.80
2019-02-24T12:10:27.217Z,2.55
2019-02-24T12:12:54.421Z,3.67
2019-02-24T12:15:21.732Z,4.28
2019-02-24T12:17:48.971Z,3.15
2019-02-24T12:20:16.242Z,3.37
2019-02-24T12:22:43.393Z,4.17
2019-02-24T12:25:10.623Z,5.53
2019-02-24T12:27:37.922Z,3.47
2019-02-24T12:30:06.403Z,3.30
2019-02-24T12:32:33.650Z,3.45
2019-02-24T12:35:00.810Z,3.75
2019-02-24T12:37:27.944Z,4.17
2019-02-24T12:39:55.084Z,3.27
2019-02-24T12:42:22.352Z,3.75
2019-02-24T12:44:49.523Z,3.98
2019-02-24T12:47:16.752Z,3.05
2019-02-24T12:49:43.901Z,3.05
2019-02-24T12:52:11.198Z,7.20
2019-02-24T12:54:38.355Z,3.83
2019-02-24T12:57:05.624Z,6.83
2019-02-24T12:59:32.746Z,4.45
2019-02-24T13:02:05.715Z,3.33
2019-02-24T13:04:29.173Z,4.75
2019-02-24T13:06:57.631Z,2.92
2019-02-24T13:09:25.133Z,4.58
2019-02-24T13:11:52.406Z,3.02
2019-02-24T13:14:19.632Z,3.50
2019-02-24T13:16:46.900Z,3.47
2019-02-24T13:19:14.161Z,4.55
2019-02-24T13:21:41.281Z,4.67
2019-02-24T13:24:08.547Z,4.72
2019-02-24T13:26:35.787Z,3.20
2019-02-24T13:29:03.177Z,3.87
2019-02-24T13:31:30.417Z,3.47
2019-02-24T13:33:57.659Z,4.17
2019-02-24T13:36:24.914Z,5.20
2019-02-24T13:38:52.219Z,2.50
2019-02-24T13:41:19.534Z,4.67
2019-02-24T13:43:47.654Z,4.67
2019-02-24T13:46:14.924Z,3.43
2019-02-24T13:48:42.132Z,3.30
2019-02-24T13:51:09.435Z,4.07
2019-02-24T13:53:38.157Z,3.77
2019-02-24T13:56:05.551Z,4.07
2019-02-24T13:58:32.802Z,3.73
2019-02-24T14:01:00.031Z,3.03
2019-02-24T14:03:27.187Z,3.80
2019-02-24T14:05:54.444Z,3.70
2019-02-24T14:08:21.706Z,3.27
2019-02-24T14:10:48.958Z,4.57
2019-02-24T14:13:16.196Z,2.60
2019-02-24T14:15:43.361Z,2.77
2019-02-24T14:18:10.501Z,2.70
2019-02-24T14:20:37.732Z,3.93
2019-02-24T14:23:05.005Z,5.20
2019-02-24T14:25:32.131Z,2.93
2019-02-24T14:27:59.389Z,3.47
2019-02-24T14:30:26.599Z,4.13
2019-02-24T14:32:53.866Z,3.27
2019-02-24T14:35:21.281Z,3.77
2019-02-24T14:37:48.557Z,2.57
2019-02-24T14:40:15.837Z,4.23
2019-02-24T14:42:43.057Z,3.90
2019-02-24T14:45:12.210Z,3.27
2019-02-24T14:47:39.459Z,3.03
2019-02-24T14:50:07.293Z,2.53
2019-02-24T14:52:34.617Z,2.50
2019-02-24T14:55:01.980Z,3.57
2019-02-24T14:57:29.248Z,2.47
2019-02-24T14:59:56.548Z,3.67
2019-02-24T15:02:23.801Z,5.10
2019-02-24T15:04:50.966Z,1.90
2019-02-24T15:07:18.226Z,3.30
2019-02-24T15:09:45.582Z,2.93
2019-02-24T15:12:12.802Z,2.20
2019-02-24T15:14:40.026Z,1.97
2019-02-24T15:17:07.420Z,3.03
2019-02-24T15:19:34.574Z,1.97
2019-02-24T15:22:01.776Z,2.80
2019-02-24T15:24:28.913Z,2.43
2019-02-24T15:26:56.216Z,2.67
2019-02-24T15:29:23.506Z,1.70
2019-02-24T15:31:50.754Z,2.57
2019-02-24T15:34:18.037Z,2.20
2019-02-24T15:36:45.297Z,2.43
2019-02-24T15:39:12.716Z,2.73
2019-02-24T15:41:39.950Z,1.70
2019-02-24T15:44:07.234Z,3.00
2019-02-24T15:46:34.489Z,1.77
2019-02-24T15:49:01.777Z,2.23
2019-02-24T15:51:29.915Z,2.40
2019-02-24T15:53:57.331Z,2.67
2019-02-24T15:56:24.591Z,1.70
2019-02-24T15:58:52.142Z,1.90
2019-02-24T16:01:19.603Z,2.10
2019-02-24T16:03:46.882Z,2.60
2019-02-24T16:06:14.114Z,2.13
2019-02-24T16:08:41.296Z,3.87
2019-02-24T16:11:08.719Z,3.03
2019-02-24T16:13:36.073Z,2.07
2019-02-24T16:16:03.357Z,1.80
2019-02-24T16:18:30.743Z,2.90
2019-02-24T16:20:57.995Z,3.63
2019-02-24T16:23:25.309Z,3.17
2019-02-24T16:25:52.541Z,3.07
2019-02-24T16:28:19.702Z,2.93
2019-02-24T16:30:46.844Z,2.70
2019-02-24T16:33:14.040Z,2.17
2019-02-24T16:35:41.316Z,2.13
2019-02-24T16:38:08.564Z,2.57
2019-02-24T16:40:35.837Z,2.17
2019-02-24T16:43:03.078Z,2.80
2019-02-24T16:45:30.357Z,2.53
2019-02-24T16:47:57.481Z,2.40
2019-02-24T16:50:24.741Z,5.03
2019-02-24T16:52:52.009Z,2.37
2019-02-24T16:55:19.324Z,3.13
2019-02-24T16:57:46.593Z,2.47
2019-02-24T17:00:16.539Z,2.60
2019-02-24T17:02:43.839Z,3.63
2019-02-24T17:05:11.393Z,2.57
2019-02-24T17:07:38.625Z,5.70
2019-02-24T17:10:05.955Z,4.37
2019-02-24T17:12:33.352Z,7.57
2019-02-24T17:15:00.642Z,3.30
2019-02-24T17:17:27.913Z,4.83
2019-02-24T17:19:55.175Z,4.47
2019-02-24T17:22:22.458Z,6.83
2019-02-24T17:24:49.790Z,5.47
2019-02-24T17:27:17.025Z,8.40
2019-02-24T17:29:44.304Z,4.90
2019-02-24T17:32:11.514Z,4.63
2019-02-24T17:34:38.801Z,5.57
2019-02-24T17:37:06.036Z,5.67
2019-02-24T17:39:33.280Z,4.57
2019-02-24T17:42:00.546Z,5.77
2019-02-24T17:44:27.816Z,4.07
2019-02-24T17:46:55.090Z,5.53
2019-02-24T17:49:22.416Z,6.10
2019-02-24T17:51:49.564Z,5.57
2019-02-24T17:54:16.792Z,7.10
2019-02-24T17:56:44.080Z,5.47
2019-02-24T17:59:11.318Z,4.90
2019-02-24T18:01:38.588Z,6.93
2019-02-24T18:04:05.834Z,8.43
2019-02-24T18:06:33.091Z,5.90
2019-02-24T18:09:00.241Z,6.67
2019-02-24T18:11:27.514Z,6.13
2019-02-24T18:13:54.759Z,7.67
2019-02-24T18:16:21.991Z,7.43
2019-02-24T18:18:49.299Z,6.90
2019-02-24T18:21:16.538Z,6.77
2019-02-24T18:23:43.867Z,8.93
2019-02-24T18:26:11.052Z,9.20
2019-02-24T18:28:38.305Z,6.43
2019-02-24T18:31:05.588Z,10.77
2019-02-24T18:33:32.865Z,6.23
2019-02-24T18:36:00.126Z,7.57
2019-02-24T18:38:28.066Z,5.73
2019-02-24T18:40:55.324Z,6.93
2019-02-24T18:43:22.595Z,6.30
2019-02-24T18:45:49.879Z,6.27
2019-02-24T18:48:17.174Z,5.07
2019-02-24T18:50:44.467Z,5.23
2019-02-24T18:53:11.727Z,7.30
2019-02-24T18:55:39.125Z,8.23
2019-02-24T18:58:06.390Z,8.10
2019-02-24T19:00:33.656Z,7.40
2019-02-24T19:03:02.055Z,7.03
2019-02-24T19:05:29.396Z,8.57
2019-02-24T19:07:56.537Z,6.03
2019-02-24T19:10:23.904Z,9.20
2019-02-24T19:12:51.151Z,7.17
2019-02-24T19:15:18.348Z,6.00
2019-02-24T19:17:45.731Z,6.57
2019-02-24T19:20:14.641Z,7.00
2019-02-24T19:22:41.874Z,6.33
2019-02-24T19:25:09.486Z,5.97
2019-02-24T19:27:36.739Z,8.27
2019-02-24T19:30:04.542Z,6.47
2019-02-24T19:32:31.801Z,6.40
2019-02-24T19:34:58.975Z,6.73
2019-02-24T19:37:26.267Z,5.67
2019-02-24T19:39:53.511Z,6.30
2019-02-24T19:42:25.341Z,7.73
2019-02-24T19:45:13.181Z,5.73
2019-02-24T19:47:40.492Z,6.00
2019-02-24T19:50:10.027Z,6.97
2019-02-24T19:52:37.271Z,6.07
2019-02-24T19:55:04.778Z,5.00
2019-02-24T19:57:32.138Z,4.83
2019-02-24T19:59:59.374Z,6.60
2019-02-24T20:02:26.881Z,8.50
2019-02-24T20:04:54.226Z,12.47
2019-02-24T20:07:21.495Z,9.13
2019-02-24T20:09:48.666Z,10.70
2019-02-24T20:12:16.000Z,9.63
2019-02-24T20:14:44.119Z,9.47
2019-02-24T20:17:11.370Z,6.73
2019-02-24T20:19:38.675Z,7.03
2019-02-24T20:22:05.941Z,6.80
2019-02-24T20:24:33.330Z,8.50
2019-02-24T20:27:00.750Z,6.53
2019-02-24T20:29:28.004Z,6.13
2019-02-24T20:31:55.315Z,8.10
2019-02-24T20:34:25.563Z,7.10
2019-02-24T20:36:51.783Z,7.73
2019-02-24T20:39:19.034Z,5.23
2019-02-24T20:41:46.305Z,7.63
2019-02-24T20:44:13.469Z,5.63
2019-02-24T20:46:40.741Z,6.63
2019-02-24T20:49:07.988Z,7.67
2019-02-24T20:51:35.335Z,8.40
2019-02-24T20:54:02.608Z,9.53
2019-02-24T20:56:29.859Z,6.87
2019-02-24T20:58:57.210Z,7.73
2019-02-24T21:01:24.475Z,6.27
2019-02-24T21:03:51.734Z,6.90
2019-02-24T21:06:18.977Z,7.17
2019-02-24T21:08:46.250Z,5.73
2019-02-24T21:11:13.493Z,6.57
2019-02-24T21:13:40.668Z,7.97
2019-02-24T21:16:07.833Z,10.73
2019-02-24T21:18:35.024Z,8.27
2019-02-24T21:21:02.281Z,7.30
2019-02-24T21:23:29.587Z,7.07
2019-02-24T21:25:56.885Z,9.27
2019-02-24T21:28:24.356Z,9.70
2019-02-24T21:30:51.686Z,11.03
2019-02-24T21:33:19.063Z,9.63
2019-02-24T21:35:46.680Z,9.00
2019-02-24T21:38:14.031Z,8.33
2019-02-24T21:40:43.078Z,8.60
2019-02-24T21:43:10.261Z,7.20
2019-02-24T21:45:37.561Z,9.23
2019-02-24T21:48:04.976Z,6.47
2019-02-24T21:50:32.232Z,7.03
2019-02-24T21:52:59.504Z,7.60
2019-02-24T21:55:26.806Z,8.53
2019-02-24T21:57:54.091Z,5.90
2019-02-24T22:00:21.395Z,6.57
2019-02-24T22:02:48.739Z,7.03
2019-02-24T22:05:15.962Z,7.67
2019-02-24T22:07:43.254Z,8.80
2019-02-24T22:10:10.904Z,6.30
2019-02-24T22:12:38.197Z,5.60
2019-02-24T22:15:07.653Z,8.67
2019-02-24T22:17:34.896Z,7.23
2019-02-24T22:20:02.252Z,7.50
2019-02-24T22:22:29.512Z,5.60
2019-02-24T22:24:56.758Z,6.27
2019-02-24T22:27:24.036Z,7.77
2019-02-24T22:29:51.253Z,5.30
2019-02-24T22:32:18.591Z,4.17
2019-02-24T22:34:46.261Z,4.47
2019-02-24T22:37:13.427Z,6.63
2019-02-24T22:39:40.797Z,6.83
2019-02-24T22:42:08.072Z,6.40
2019-02-24T22:44:35.319Z,6.43
2019-02-24T22:47:02.787Z,6.00
2019-02-24T22:49:29.946Z,6.30
2019-02-24T22:51:57.140Z,6.27
2019-02-24T22:54:24.447Z,5.03
2019-02-24T22:56:51.676Z,5.43
2019-02-24T22:59:18.950Z,5.27
2019-02-24T23:01:47.693Z,4.20
2019-02-24T23:04:14.849Z,7.43
2019-02-24T23:06:42.102Z,5.07
2019-02-24T23:09:13.142Z,6.10
2019-02-24T23:11:40.294Z,3.80
2019-02-24T23:14:07.575Z,4.67
2019-02-24T23:16:34.856Z,5.23
2019-02-24T23:19:02.036Z,5.30
2019-02-24T23:21:29.286Z,5.20
2019-02-24T23:23:56.548Z,6.57
2019-02-24T23:26:23.697Z,6.20
2019-02-24T23:28:50.847Z,8.83
2019-02-24T23:31:18.099Z,7.17
2019-02-24T23:33:45.295Z,5.80
2019-02-24T23:36:12.521Z,5.70
2019-02-24T23:38:39.780Z,4.47
2019-02-24T23:41:07.491Z,4.63
2019-02-24T23:43:34.746Z,5.63
2019-02-24T23:46:02.023Z,5.00
2019-02-24T23:48:29.453Z,6.03
2019-02-24T23:50:56.679Z,5.40
2019-02-24T23:53:23.951Z,6.17
2019-02-24T23:55:51.115Z,5.53
2019-02-24T23:58:18.427Z,4.70
